CW2798 Aduanas ES current weather conditions

sailwx.info

Wind from 289 at 4 knots gusting 6

Air temperature 24.4° C
Dewpoint 19.5° C

Last reported at 2014-Sep-19 02:45 UTC.
Time now 2014-Sep-19 03:50 UTC

Location: N 38°48' E 000°11'.
View on Google Maps.

See reports from other nearby stations

  
Tides and Currents Weather Stations Pressure Air Temp Water Temp Dewpoint Dewpoint Depression Visibility Wind Speed Wind Dir Waves Ship Positions
date/time (UTC)wind fromknots sea level pressurealtimeterstation pressurevisibilityair tempwater tempwave heightnotes
2014-Sep-19 02:45 289 4 gusting 6 24.4
2014-Sep-19 02:00 303 5 gusting 11 24.4
2014-Sep-19 01:45 283 6 gusting 7 24.4
2014-Sep-19 01:15 264 4 gusting 10 25.0
2014-Sep-19 01:00 252 4 gusting 8 25.0
2014-Sep-19 00:00 288 1 gusting 2 24.4
2014-Sep-18 23:45 270 2 gusting 6 25.0
2014-Sep-18 23:30 269 3 gusting 6 25.0
2014-Sep-18 23:15 25.0
2014-Sep-18 22:45 245 1 gusting 5 25.0
2014-Sep-18 22:30 270 1 gusting 6 25.0
2014-Sep-18 21:45 253 3 gusting 5 25.6
2014-Sep-18 21:30 246 2 gusting 5 25.0
2014-Sep-18 21:15 262 2 gusting 4 25.0
2014-Sep-18 21:00 272 4 gusting 5 25.6
2014-Sep-18 20:15 256 0 gusting 6 25.6
2014-Sep-18 19:45 256 1 gusting 4 25.6
2014-Sep-18 19:30 262 1 gusting 3 25.6
2014-Sep-18 19:15 241 2 gusting 5 25.6
2014-Sep-18 19:00 250 3 gusting 6 26.1
2014-Sep-18 18:00 244 4 gusting 6 26.7
2014-Sep-18 17:45 230 5 gusting 9 26.7
2014-Sep-18 17:30 229 5 gusting 6 27.2
2014-Sep-18 17:15 233 6 gusting 10 27.2
2014-Sep-18 16:45 228 7 gusting 13 27.2
2014-Sep-18 16:00 251 4 gusting 9 28.3
2014-Sep-18 15:45 219 7 gusting 15 27.8
2014-Sep-18 15:00 227 6 gusting 18 28.3
2014-Sep-18 14:45 213 6 gusting 13 28.9
2014-Sep-18 14:15 183 6 gusting 11 28.3
2014-Sep-18 14:00 172 6 gusting 12 28.3
2014-Sep-18 13:45 195 6 gusting 7 28.3
2014-Sep-18 13:30 176 7 gusting 8 27.8
2014-Sep-18 13:00 189 6 gusting 6 27.8
2014-Sep-18 12:45 166 7 gusting 12 27.2
2014-Sep-18 12:30 175 6 gusting 12 27.2
2014-Sep-18 12:00 160 6 gusting 10 27.2
2014-Sep-18 11:30 149 6 gusting 12 27.2
2014-Sep-18 10:45 113 2 gusting 5 27.2
2014-Sep-18 10:30 127 0 gusting 5 27.2
2014-Sep-18 10:15 095 0 gusting 4 27.8
2014-Sep-18 10:00 089 0 gusting 2 27.2
2014-Sep-18 09:30 090 0 gusting 4 26.7
2014-Sep-18 09:15 074 0 gusting 3 26.7
2014-Sep-18 09:00 27.2
2014-Sep-18 08:45 26.7
2014-Sep-18 08:30 176 1 gusting 5 25.6
2014-Sep-18 08:00 274 3 gusting 6 25.6
2014-Sep-18 07:45 332 3 gusting 6 25.6
2014-Sep-18 07:15 279 3 gusting 9 25.0
2014-Sep-18 07:00 320 1 gusting 6 25.0
2014-Sep-18 06:45 325 2 gusting 7 24.4
2014-Sep-18 06:30 324 2 gusting 6 24.4
2014-Sep-18 06:00 22.2
2014-Sep-18 05:45 267 1 gusting 2 21.7
2014-Sep-18 05:30 254 2 gusting 5 22.8
2014-Sep-18 05:15 321 22.8
2014-Sep-18 04:30 21.7
2014-Sep-18 04:15 255 1 gusting 3 22.2
2014-Sep-18 04:00 293 1 gusting 6 22.8
2014-Sep-18 03:15 231 2 gusting 4 21.7
2014-Sep-18 02:15 296 0 gusting 4 22.2
2014-Sep-18 02:00 22.2
2014-Sep-18 01:30 22.2
2014-Sep-18 01:15 22.8
2014-Sep-18 00:30 23.9
2014-Sep-18 00:00 24.4
2014-Sep-17 23:45 24.4
2014-Sep-17 23:00 280 1 gusting 3 25.0
2014-Sep-17 22:45 255 2 gusting 5 25.0
2014-Sep-17 22:30 273 4 gusting 7 25.6
2014-Sep-17 21:30 256 5 gusting 7 25.6
2014-Sep-17 20:45 25.6
2014-Sep-17 20:30 291 2 gusting 6 25.6
2014-Sep-17 19:45 266 1 gusting 3 26.1
2014-Sep-17 19:30 232 4 gusting 10 26.1
2014-Sep-17 19:15 225 6 gusting 10 26.1
2014-Sep-17 19:00 224 5 gusting 8 26.1
2014-Sep-17 18:30 221 5 gusting 9 26.1
2014-Sep-17 18:15 217 6 gusting 12 26.7
2014-Sep-17 18:00 222 5 gusting 12 26.7
2014-Sep-17 17:15 222 6 gusting 10 27.2
2014-Sep-17 17:00 208 6 gusting 8 27.2
2014-Sep-17 16:45 207 7 gusting 12 27.2
2014-Sep-17 16:15 201 6 gusting 13 27.8
2014-Sep-17 16:00 202 6 gusting 13 27.8
2014-Sep-17 15:30 168 6 gusting 13 27.2
2014-Sep-17 15:15 166 6 gusting 11 27.8
2014-Sep-17 15:00 174 6 gusting 11 27.8
2014-Sep-17 14:45 165 6 gusting 11 27.2
2014-Sep-17 14:15 157 6 gusting 9 27.2
2014-Sep-17 13:30 149 6 gusting 10 26.7
2014-Sep-17 13:15 137 4 gusting 7 27.8
2014-Sep-17 13:00 143 3 gusting 6 27.8
2014-Sep-17 12:30 126 4 gusting 6 27.2
2014-Sep-17 12:15 136 4 gusting 7 27.2
2014-Sep-17 11:45 093 3 gusting 6 27.2
2014-Sep-17 11:30 095 3 gusting 6 27.2
2014-Sep-17 11:15 084 3 gusting 5 27.8
2014-Sep-17 11:00 091 2 gusting 6 27.8
2014-Sep-17 10:45 053 3 gusting 6 27.8
2014-Sep-17 10:15 001 5 gusting 7 27.2
2014-Sep-17 10:00 022 4 gusting 6 27.2
2014-Sep-17 09:45 049 3 gusting 5 27.8
2014-Sep-17 09:15 348 0 gusting 6 27.8
2014-Sep-17 08:45 26.7
2014-Sep-17 08:30 26.7
2014-Sep-17 08:15 230 26.1
2014-Sep-17 07:45 25.0
2014-Sep-17 07:30 250 2 gusting 5 24.4
2014-Sep-17 07:00 283 0 gusting 4 23.3
2014-Sep-17 06:45 22.8
2014-Sep-17 06:30 22.2
2014-Sep-17 06:15 22.2
2014-Sep-17 05:45 174 0 gusting 4 22.8
2014-Sep-17 04:30 326 3 gusting 8 24.4
2014-Sep-17 03:45 339 5 gusting 8 24.4
2014-Sep-17 03:30 336 6 gusting 11 24.4
2014-Sep-17 03:00 333 7 gusting 14 25.0